Martin Lake, Minnesota
Current Conditions -  °F | °C
As of 9:55 AM on Friday 19 Dec 2014 (Local Time) from KCBG Reporting Station
Overcast Overcast  
Wind Chill: 25°   Ceiling: 1700
Heat Index: 25°   Visibility: 10mi
Dew Point: 16°   Wind: 3mph
Humidity: 69%   Direction: 120°ESE
Pressure: 30.22"   Gusts: NA
Location:  45.406°N, 93.0079°W
Report Text: KCBG 191555Z AUTO 12003KT 10SM OVC017 M04/M09 A3022 RMK AO2
Loading
Personal Weather Stations






























Interactive Weather Map New forecast layout! Learn more

10-Day Weather Forecast

Advertisements
Track Severe Weather on mobile